Nearby METAR Reports

 

KW29 - Stevensville, Maryland, USA
Distance from station: SSW 13mi, 21km
Updated: Mon, 15-Oct-2018 5:00pm EDT
Partly cloudy
Partly cloudy
 Wind from S
Wind: S 6 mph , 9 km/h
Temperature: 72°F , 22°C
Dew Point: 66°F , 19°C
Humidity: 83%
Barometer: 29.97 inHg , 1014.9 hPa
Clouds: Partly cloudy
Visibility: 10 miles , 16 km
Cloud details: Partly cloudy 11000 ft
2018/10/15 21:00 KW29 152100Z AUTO 19005KT 10SM SCT110 22/19 A2997 RMK AO2
KMTN - Baltimore/Martin, Maryland, USA
Distance from station: NW 13mi, 22km
Updated: Mon, 15-Oct-2018 5:15pm EDT
Light rain, Overcast
Light rain, Overcast
 Wind from S
Wind: S 5 mph , 7 km/h
Temperature: 68°F , 20°C
Dew Point: 66°F , 19°C
Humidity: 94%
Barometer: 29.98 inHg , 1015.2 hPa
Summary: Light rain
Clouds: Overcast
Visibility: 7 miles , 11 km
Cloud details: Partly cloudy 7000 ft
Mostly cloudy 8000 ft
Overcast 9000 ft
2018/10/15 21:15 KMTN 152115Z 19004KT 7SM -RA SCT070 BKN080 OVC090 20/19 A2998
 
KNAK - Annapolis/Naval, Maryland, USA
Distance from station: SW 18mi, 28km
Updated: Mon, 15-Oct-2018 4:54pm EDT
Partly cloudy
Partly cloudy
 Wind from SSW
Wind: SSW 6 mph , 9 km/h
Temperature: 73°F , 23°C
Dew Point: 64°F , 18°C
Humidity: 74%
Barometer: 29.97 inHg , 1014.9 hPa
Clouds: Partly cloudy
Visibility: 10 miles , 16 km
Cloud details: Few Clouds 10000 ft
Partly cloudy 11000 ft
2018/10/15 20:54 KNAK 152054Z AUTO 21005KT 10SM FEW100 SCT110 23/18 A2997 RMK AO2 RAE40 SLP151 P0000 60000 T02330178 58019
KAPG - Aberdeen/Phillip, Maryland, USA
Distance from station: NNE 21mi, 34km
Updated: Mon, 15-Oct-2018 4:46pm EDT
Light rain, Overcast
Light rain, Overcast
 Wind from SW
Wind: SW 8 mph , 13 km/h
Temperature: 66°F , 19°C
Dew Point: 64°F , 18°C
Humidity: 94%
Barometer: 29.97 inHg , 1014.9 hPa
Summary: Light rain
Clouds: Overcast
Visibility: 7 miles , 11 km
Cloud details: Mostly cloudy 7000 ft
Overcast 14000 ft
2018/10/15 20:46 KAPG 152046Z 22007KT 7SM -RA BKN070 OVC140 19/18 A2997 RMK RAE1946RAB04E17 SLP152 57017
 
KDMH - Baltimore/Dwntwn, Maryland, USA
Distance from station: WNW 21mi, 34km
Updated: Mon, 15-Oct-2018 4:54pm EDT

 
Temperature: 68°F , 20°C
Dew Point: 64°F , 18°C
Humidity: 88%
Barometer: 29.98 inHg , 1015.2 hPa
2018/10/15 20:54 KDMH 152054Z AUTO 20/18 A2998 RMK AO1 SLP152 60002 T02000183 56014
KBWI - Balto/Wash Intl, Maryland, USA
Distance from station: W 23mi, 37km
Updated: Mon, 15-Oct-2018 4:54pm EDT
Light rain, Overcast
Light rain, Overcast
 Wind from SW
Wind: SW 3 mph , 6 km/h
Temperature: 66°F , 19°C
Dew Point: 64°F , 18°C
Humidity: 94%
Barometer: 29.97 inHg , 1014.9 hPa
Summary: Light rain
Clouds: Overcast
Visibility: 9 miles , 14 km
Cloud details: Few Clouds 6500 ft
Mostly cloudy 8500 ft
Mostly cloudy 11000 ft
Overcast 25000 ft
2018/10/15 20:54 KBWI 152054Z 22003KT 9SM -RA FEW065 BKN085 BKN110 OVC250 19/18 A2997 RMK AO2 SLP147 P0000 60002 T01890183 56020
 
KESN - Easton/Newnam, Maryland, USA
Distance from station: SSE 27mi, 44km
Updated: Mon, 15-Oct-2018 4:50pm EDT
Mostly cloudy
Mostly cloudy
 Wind from SSW
Wind: SSW 7 mph , 11 km/h
Temperature: 73°F , 23°C
Dew Point: 68°F , 20°C
Humidity: 83%
Barometer: 30.03 inHg , 1016.9 hPa
Clouds: Mostly cloudy
Visibility: 10 miles , 16 km
Cloud details: Mostly cloudy 6000 ft
Mostly cloudy 10000 ft
2018/10/15 20:50 KESN 152050Z 21006KT 10SM BKN060 BKN100 23/20 A3003
KFME - Fort Meade, Maryland, USA
Distance from station: WSW 28mi, 45km
Updated: Mon, 15-Oct-2018 5:03pm EDT
Partly cloudy
Partly cloudy
 Wind from SW
Wind: SW 5 mph , 7 km/h
Temperature: 64°F , 18°C
Dew Point: 64°F , 18°C
Humidity: 100%
Barometer: 30.00 inHg , 1015.9 hPa
Clouds: Partly cloudy
Visibility: 7 miles , 11 km
Cloud details: Partly cloudy 9500 ft
Partly cloudy 12000 ft
2018/10/15 21:03 KFME 152103Z AUTO 23004KT 7SM SCT095 SCT120 18/18 A3000 RMK AO1
 
KCGS - College Park, Maryland, USA
Distance from station: WSW 38mi, 61km
Updated: Mon, 15-Oct-2018 5:02pm EDT
Overcast
Overcast
 Wind from calm
Wind: Calm
Temperature: 68°F , 20°C
Dew Point: 63°F , 17°C
Humidity: 83%
Barometer: 29.98 inHg , 1015.2 hPa
Clouds: Overcast
Visibility: 10 miles , 16 km
Cloud details: Overcast 9000 ft
2018/10/15 21:02 KCGS 152102Z AUTO 00000KT 10SM OVC090 20/17 A2998 RMK AO1 T01960173
KADW - Andrews Afb, Maryland, USA
Distance from station: SW 41mi, 66km
Updated: Mon, 15-Oct-2018 4:56pm EDT
Few Clouds
Few Clouds
 Wind from SSW
Wind: SSW 8 mph , 13 km/h
Temperature: 68°F , 20°C
Dew Point: 64°F , 18°C
Humidity: 88%
Barometer: 29.97 inHg , 1014.9 hPa
Clouds: Few Clouds
Visibility: 10 miles , 16 km
Cloud details: Few Clouds 9500 ft
2018/10/15 20:56 KADW 152056Z AUTO 21007KT 10SM FEW095 20/18 A2997 RMK AO2 DZB1956E1958RAB1958E15 SLP155 P0000 60000 T02030177 57020 $
 
KDOV - Dover Afb, Delaware, USA
Distance from station: E 42mi, 68km
Updated: Mon, 15-Oct-2018 5:15pm EDT
Light drizzle, Few clouds
Light drizzle, Few clouds
 Wind from SSW
Wind: SSW 14 mph , 22 km/h
Temperature: 72°F , 22°C
Dew Point: 64°F , 18°C
Humidity: 78%
Barometer: 29.96 inHg , 1014.6 hPa
Summary: Light Drizzle
Clouds: Few Clouds
Visibility: 10 miles , 16 km
Cloud details: Few Clouds 11000 ft
2018/10/15 21:15 KDOV 152115Z AUTO 20012KT 10SM -DZ FEW110 22/18 A2996 RMK AO2 DZB15 SLP149 $
KCGE - Cambridge-Dorch, Maryland, USA
Distance from station: SSE 45mi, 73km
Updated: Mon, 15-Oct-2018 5:00pm EDT
Few Clouds
Few Clouds
 Wind from varies
Wind: varies 5 mph , 7 km/h
Temperature: 75°F , 24°C
Dew Point: 68°F , 20°C
Humidity: 78%
Barometer: 29.99 inHg , 1015.6 hPa
Clouds: Few Clouds
Visibility: 10 miles , 16 km
Cloud details: Few Clouds 12000 ft
2018/10/15 21:00 KCGE 152100Z AUTO VRB04KT 10SM FEW120 24/20 A2999 RMK A01
 
KDCA - Washington/Natl, Washington D.c., USA
Distance from station: WSW 47mi, 76km
Updated: Mon, 15-Oct-2018 4:52pm EDT
Overcast
Overcast
 Wind from SSW
Wind: SSW 10 mph , 17 km/h
Temperature: 70°F , 21°C
Dew Point: 63°F , 17°C
Humidity: 78%
Barometer: 29.99 inHg , 1015.6 hPa
Clouds: Overcast
Visibility: 10 miles , 16 km
Cloud details: Few Clouds 5000 ft
Mostly cloudy 10000 ft
Overcast 25000 ft
2018/10/15 20:52 KDCA 152052Z 20009KT 10SM FEW050 BKN100 OVC250 21/17 A2999 RMK AO2 RAE08 SLP153 P0001 60001 T02110172 58018
KGAI - Gaithersburg, Maryland, USA
Distance from station: W 49mi, 78km
Updated: Mon, 15-Oct-2018 4:56pm EDT
Light rain, Mostly cloudy
Light rain, Mostly cloudy
 Wind from S
Wind: S 5 mph , 7 km/h
Temperature: 64°F , 18°C
Dew Point: 63°F , 17°C
Humidity: 94%
Barometer: 30.00 inHg , 1015.9 hPa
Summary: Light rain
Clouds: Mostly cloudy
Visibility: 10 miles , 16 km
Cloud details: Mostly cloudy 8500 ft
2018/10/15 20:56 KGAI 152056Z AUTO 19004KT 10SM -RA BKN085 18/17 A3000 RMK AO2 SLP185 P0000 60003 T01830172 56013
 
KILG - Wilmington, Delaware, USA
Distance from station: NE 49mi, 79km
Updated: Mon, 15-Oct-2018 4:51pm EDT
Mostly cloudy
Mostly cloudy
 Wind from SSW
Wind: SSW 13 mph , 20 km/h
Temperature: 68°F , 20°C
Dew Point: 64°F , 18°C
Humidity: 88%
Barometer: 29.97 inHg , 1014.9 hPa
Clouds: Mostly cloudy
Visibility: 10 miles , 16 km
Cloud details: Mostly cloudy 10000 ft
2018/10/15 20:51 KILG 152051Z 21011KT 10SM BKN100 20/18 A2997 RMK AO2 RAE1953 SLP147 P0001 60001 T02000178 58016
KDMW - Carroll Cnty, Maryland, USA
Distance from station: NW 50mi, 80km
Updated: Mon, 15-Oct-2018 5:00pm EDT
Partly cloudy
Partly cloudy
 Wind from SW
Wind: SW 8 mph , 13 km/h
Temperature: 64°F , 18°C
Dew Point: 61°F , 16°C
Humidity: 88%
Barometer: 29.97 inHg , 1014.9 hPa
Clouds: Partly cloudy
Visibility: 10 miles , 16 km
Cloud details: Partly cloudy 9000 ft
2018/10/15 21:00 KDMW 152100Z AUTO 22007KT 10SM SCT090 18/16 A2997 RMK AO2